Time;durP1;ratioP1;P1;durP2;ratioP2;P2;SDS_P1;SDS_P2;PMS_P1;PMS_P2;Temp;Humidity;BMP_temperature;BMP_pressure;BME280_temperature;BME280_humidity;BME280_pressure;Samples;Min_cycle;Max_cycle;Signal;HPM_P1;HPM_P2
2024/01/30 00:01:51;;;;;;;8.00;5.30;;;11.80;99.90;;;;;;5078133;28;20236;-83
2024/01/30 00:04:17;;;;;;;7.50;5.57;;;11.90;99.90;;;;;;5078301;28;20262;-85
2024/01/30 00:06:44;;;;;;;6.97;5.30;;;11.80;99.90;;;;;;5078196;28;20175;-84
2024/01/30 00:09:10;;;;;;;7.63;5.27;;;11.90;99.90;;;;;;5077882;28;20182;-86
2024/01/30 00:11:37;;;;;;;7.27;5.37;;;11.90;99.90;;;;;;5078358;28;20180;-85
2024/01/30 00:14:03;;;;;;;6.20;5.27;;;11.90;99.90;;;;;;5082089;28;20176;-85
2024/01/30 00:16:30;;;;;;;6.53;4.87;;;11.90;99.90;;;;;;5077964;28;20227;-83
2024/01/30 00:18:56;;;;;;;8.50;5.23;;;11.90;99.90;;;;;;5077348;28;20178;-84
2024/01/30 00:21:22;;;;;;;6.03;4.80;;;12.00;99.90;;;;;;5077460;28;20237;-85
2024/01/30 00:23:48;;;;;;;7.23;5.27;;;12.00;99.90;;;;;;5077225;28;20180;-84
2024/01/30 00:26:14;;;;;;;8.43;5.10;;;12.00;99.90;;;;;;5077641;28;20176;-83
2024/01/30 00:28:41;;;;;;;6.80;4.93;;;12.00;99.90;;;;;;5077867;28;20176;-84
2024/01/30 00:31:07;;;;;;;6.33;4.63;;;12.00;99.90;;;;;;5076230;28;20238;-83
2024/01/30 00:33:32;;;;;;;5.77;4.93;;;12.00;99.90;;;;;;5078058;28;20224;-84
2024/01/30 00:35:58;;;;;;;6.87;4.97;;;12.10;99.90;;;;;;5077784;28;20225;-86
2024/01/30 00:38:24;;;;;;;7.63;5.30;;;12.00;99.90;;;;;;5077642;28;20179;-85
2024/01/30 00:40:50;;;;;;;6.20;5.27;;;12.10;99.90;;;;;;5075519;28;20210;-83
2024/01/30 00:43:16;;;;;;;7.07;5.47;;;12.10;99.90;;;;;;5076948;28;20179;-83
2024/01/30 00:45:44;;;;;;;6.37;4.77;;;12.10;99.90;;;;;;5077071;28;20184;-83
2024/01/30 00:48:09;;;;;;;9.47;5.17;;;12.10;99.90;;;;;;5077345;28;20261;-83
2024/01/30 00:50:35;;;;;;;8.47;5.00;;;12.10;99.90;;;;;;5077734;28;20654;-84
2024/01/30 00:53:01;;;;;;;8.27;5.20;;;12.20;99.90;;;;;;5076437;28;20675;-83
2024/01/30 00:55:27;;;;;;;10.23;5.40;;;12.20;99.90;;;;;;5076934;28;20186;-84
2024/01/30 00:57:52;;;;;;;7.00;4.90;;;12.30;99.90;;;;;;5077563;28;20203;-83
2024/01/30 01:00:18;;;;;;;7.53;4.93;;;12.30;99.90;;;;;;5077125;28;20237;-84
2024/01/30 01:02:44;;;;;;;7.03;5.13;;;12.30;99.90;;;;;;5076883;28;20179;-84
2024/01/30 01:05:10;;;;;;;6.60;5.07;;;12.30;99.90;;;;;;5076570;28;20208;-81
2024/01/30 01:07:36;;;;;;;8.37;4.97;;;12.30;99.90;;;;;;5076732;28;20180;-84
2024/01/30 01:10:02;;;;;;;6.83;4.90;;;12.30;99.90;;;;;;5077004;28;20545;-83
2024/01/30 01:12:28;;;;;;;5.97;4.50;;;12.30;99.90;;;;;;5093656;28;20173;-83
2024/01/30 01:14:53;;;;;;;8.77;5.27;;;12.30;99.90;;;;;;5076799;28;20171;-83
2024/01/30 01:17:19;;;;;;;7.67;4.97;;;12.20;99.90;;;;;;5076545;28;20170;-83
2024/01/30 01:19:45;;;;;;;7.37;5.00;;;12.30;99.90;;;;;;5076598;28;20203;-83
2024/01/30 01:22:11;;;;;;;5.87;4.57;;;12.30;99.90;;;;;;5076872;28;20651;-85
2024/01/30 01:24:37;;;;;;;7.63;5.30;;;12.30;99.90;;;;;;5076722;28;20217;-83
2024/01/30 01:27:03;;;;;;;11.07;5.40;;;12.30;99.90;;;;;;5075888;28;20207;-83
2024/01/30 01:29:29;;;;;;;6.73;5.07;;;12.30;99.90;;;;;;5076782;28;20226;-84
2024/01/30 01:31:55;;;;;;;6.37;4.47;;;12.30;99.90;;;;;;5076661;28;20179;-84
2024/01/30 01:34:21;;;;;;;8.53;5.40;;;12.30;99.90;;;;;;5078934;28;20195;-84
2024/01/30 01:36:47;;;;;;;5.50;4.30;;;12.30;99.90;;;;;;5095052;28;20171;-81
2024/01/30 01:39:13;;;;;;;6.60;4.80;;;12.30;99.90;;;;;;5095848;28;20632;-83
2024/01/30 01:41:38;;;;;;;5.83;4.50;;;12.30;99.90;;;;;;5080122;28;20664;-83
2024/01/30 01:44:05;;;;;;;5.23;4.70;;;12.30;99.90;;;;;;5076989;28;20274;-85
2024/01/30 01:46:33;;;;;;;8.67;5.30;;;12.30;99.90;;;;;;5075918;28;20198;-84
2024/01/30 01:49:02;;;;;;;6.37;4.63;;;12.30;99.90;;;;;;5077062;28;20178;-85
2024/01/30 01:51:28;;;;;;;6.83;4.97;;;12.30;99.90;;;;;;5075457;28;20192;-82
2024/01/30 01:53:55;;;;;;;6.63;4.70;;;12.30;99.90;;;;;;5076809;28;20199;-83
2024/01/30 01:56:25;;;;;;;9.00;4.60;;;12.30;99.90;;;;;;5094403;28;20202;-85
2024/01/30 01:58:54;;;;;;;5.83;4.10;;;12.30;99.90;;;;;;5075950;28;20212;-84
2024/01/30 02:01:22;;;;;;;7.37;4.80;;;12.30;99.90;;;;;;5075614;28;20707;-84
2024/01/30 02:03:47;;;;;;;4.90;4.30;;;12.30;99.90;;;;;;5079275;28;20178;-83
2024/01/30 02:06:16;;;;;;;8.10;5.00;;;12.30;99.90;;;;;;5096489;28;20181;-84
2024/01/30 02:08:42;;;;;;;7.10;4.47;;;12.30;99.90;;;;;;5095601;28;20703;-84
2024/01/30 02:11:10;;;;;;;8.17;5.27;;;12.40;99.90;;;;;;5095458;28;20314;-85
2024/01/30 02:13:36;;;;;;;7.80;4.77;;;12.30;99.90;;;;;;5095789;28;20167;-84
2024/01/30 02:16:02;;;;;;;7.83;4.70;;;12.40;99.90;;;;;;5095352;28;20177;-85
2024/01/30 02:18:27;;;;;;;8.30;5.13;;;12.40;99.90;;;;;;5095952;28;20266;-85
2024/01/30 02:20:54;;;;;;;7.90;5.20;;;12.40;99.90;;;;;;5095688;28;20216;-84
2024/01/30 02:23:20;;;;;;;8.33;4.87;;;12.40;99.90;;;;;;5113608;28;20170;-83
2024/01/30 02:25:46;;;;;;;8.50;4.73;;;12.50;99.90;;;;;;5094255;28;20167;-84
2024/01/30 02:28:12;;;;;;;5.77;4.90;;;12.40;99.90;;;;;;5095568;28;20177;-84
2024/01/30 02:30:44;;;;;;;6.50;4.90;;;12.40;99.90;;;;;;5096414;28;20212;-86
2024/01/30 02:33:10;;;;;;;6.60;4.87;;;12.30;99.90;;;;;;5094252;28;20175;-84
2024/01/30 02:35:36;;;;;;;6.17;4.40;;;12.30;99.90;;;;;;5095970;28;20175;-83
2024/01/30 02:38:01;;;;;;;9.97;5.40;;;12.40;99.90;;;;;;5094324;28;20275;-83
2024/01/30 02:40:27;;;;;;;7.00;4.90;;;12.40;99.90;;;;;;5095535;28;20214;-84
2024/01/30 02:42:53;;;;;;;7.27;4.80;;;12.40;99.90;;;;;;5096002;28;20176;-86
2024/01/30 02:45:18;;;;;;;8.97;4.80;;;12.40;99.90;;;;;;5095942;28;20622;-85
2024/01/30 02:47:45;;;;;;;7.50;4.70;;;12.30;99.90;;;;;;5097571;28;20171;-84
2024/01/30 02:50:11;;;;;;;7.57;5.27;;;12.40;99.90;;;;;;5118697;28;20159;-85
2024/01/30 02:52:37;;;;;;;7.57;5.00;;;12.40;99.90;;;;;;5095145;28;20245;-85
2024/01/30 02:55:04;;;;;;;7.20;4.40;;;12.50;99.90;;;;;;5095164;28;20174;-83
2024/01/30 02:57:29;;;;;;;7.80;4.40;;;12.40;99.90;;;;;;5095473;28;20259;-83
2024/01/30 02:59:55;;;;;;;10.67;5.00;;;12.60;99.90;;;;;;5094955;28;20688;-83
2024/01/30 03:02:20;;;;;;;7.00;4.83;;;12.50;99.90;;;;;;5094241;28;20211;-85
2024/01/30 03:04:47;;;;;;;9.67;5.10;;;12.40;99.90;;;;;;5094513;28;20486;-84
2024/01/30 03:07:12;;;;;;;5.87;4.43;;;12.40;99.90;;;;;;5095290;28;20171;-84
2024/01/30 03:09:38;;;;;;;9.07;4.70;;;12.60;99.90;;;;;;5095544;28;20235;-84
2024/01/30 03:12:04;;;;;;;6.43;4.90;;;12.50;99.90;;;;;;5096245;28;20202;-83
2024/01/30 03:14:31;;;;;;;10.93;5.70;;;12.50;99.90;;;;;;5097399;28;20180;-84
2024/01/30 03:16:57;;;;;;;7.07;5.17;;;12.50;99.90;;;;;;5095063;28;20181;-84
2024/01/30 03:19:23;;;;;;;7.47;4.67;;;12.60;99.90;;;;;;5095292;28;20240;-82
2024/01/30 03:21:49;;;;;;;6.57;4.67;;;12.40;99.90;;;;;;5098388;28;20211;-84
2024/01/30 03:24:14;;;;;;;8.67;5.07;;;12.40;99.90;;;;;;5113529;28;20178;-84
2024/01/30 03:26:40;;;;;;;7.60;4.87;;;12.50;99.90;;;;;;5109530;28;20634;-83
2024/01/30 03:29:07;;;;;;;7.43;5.40;;;12.40;99.90;;;;;;5094972;28;20639;-83
2024/01/30 03:31:33;;;;;;;6.53;4.87;;;12.40;99.90;;;;;;5095027;28;20189;-82
2024/01/30 03:33:58;;;;;;;6.40;4.67;;;12.50;99.90;;;;;;5095053;28;20184;-85
2024/01/30 03:36:24;;;;;;;7.70;4.90;;;12.40;99.90;;;;;;5095038;28;20724;-83
2024/01/30 03:38:50;;;;;;;6.47;4.37;;;12.40;99.90;;;;;;5094445;28;20166;-84
2024/01/30 03:41:15;;;;;;;11.20;4.83;;;12.30;99.90;;;;;;5094823;28;20206;-84
2024/01/30 03:43:41;;;;;;;7.83;4.93;;;12.30;99.90;;;;;;5095139;28;20182;-83
2024/01/30 03:46:07;;;;;;;6.90;5.00;;;12.30;99.90;;;;;;5112951;28;20498;-84
2024/01/30 03:48:32;;;;;;;8.23;5.10;;;12.30;99.90;;;;;;5094942;28;20197;-85
2024/01/30 03:50:58;;;;;;;6.17;4.47;;;12.20;99.90;;;;;;5095127;28;20180;-84
2024/01/30 03:53:24;;;;;;;7.93;4.77;;;12.20;99.90;;;;;;5095064;28;20537;-84
2024/01/30 03:55:49;;;;;;;7.63;4.73;;;12.30;99.90;;;;;;5094468;28;20178;-84
2024/01/30 03:58:15;;;;;;;7.00;4.80;;;12.20;99.90;;;;;;5094917;28;20190;-86
2024/01/30 04:00:41;;;;;;;7.87;5.33;;;12.30;99.90;;;;;;5093843;28;20245;-84
2024/01/30 04:03:06;;;;;;;7.43;5.20;;;12.30;99.90;;;;;;5094750;28;20171;-84
2024/01/30 04:05:32;;;;;;;8.50;4.87;;;12.20;99.90;;;;;;5112994;28;20175;-84
2024/01/30 04:07:58;;;;;;;8.33;5.30;;;12.20;99.90;;;;;;5112973;28;20177;-83
2024/01/30 04:10:24;;;;;;;7.83;5.37;;;12.20;99.90;;;;;;5094405;28;20185;-84
2024/01/30 04:12:51;;;;;;;6.60;5.13;;;12.20;99.90;;;;;;5094599;28;20179;-83
2024/01/30 04:15:17;;;;;;;7.77;4.80;;;12.30;99.90;;;;;;5115992;28;20195;-83
2024/01/30 04:17:44;;;;;;;7.87;5.00;;;12.40;99.90;;;;;;5098664;28;20179;-84
2024/01/30 04:20:15;;;;;;;8.10;4.67;;;12.30;99.90;;;;;;5097898;28;20198;-83
2024/01/30 04:22:45;;;;;;;7.37;5.00;;;12.30;99.90;;;;;;5098086;28;20178;-83
2024/01/30 04:25:12;;;;;;;8.03;5.50;;;12.20;99.90;;;;;;5098460;28;20166;-85
2024/01/30 04:27:38;;;;;;;8.50;5.37;;;12.30;99.90;;;;;;5098481;28;20297;-84
2024/01/30 04:30:04;;;;;;;8.47;5.50;;;12.30;99.90;;;;;;5098239;28;20207;-85
2024/01/30 04:32:30;;;;;;;7.90;5.27;;;12.20;99.90;;;;;;5099423;28;20270;-82
2024/01/30 04:34:56;;;;;;;7.63;5.17;;;12.20;99.90;;;;;;5100038;28;20205;-84
2024/01/30 04:37:21;;;;;;;8.03;5.27;;;12.20;99.90;;;;;;5107745;28;20171;-84
2024/01/30 04:39:47;;;;;;;6.57;4.80;;;12.20;99.90;;;;;;5108093;28;20207;-82
2024/01/30 04:42:13;;;;;;;8.47;5.47;;;12.30;99.90;;;;;;5116474;28;20171;-84
2024/01/30 04:44:38;;;;;;;7.73;5.07;;;12.30;99.90;;;;;;5098319;28;20700;-83
2024/01/30 04:47:05;;;;;;;8.43;5.87;;;12.30;99.90;;;;;;5098733;28;20206;-84
2024/01/30 04:49:32;;;;;;;8.70;5.17;;;12.30;99.90;;;;;;5098670;28;20200;-84
2024/01/30 04:51:58;;;;;;;6.33;5.00;;;12.40;99.90;;;;;;5098096;28;20163;-85
2024/01/30 04:54:24;;;;;;;7.20;5.50;;;12.40;99.90;;;;;;5098632;28;20167;-83
2024/01/30 04:56:50;;;;;;;7.37;5.27;;;12.50;99.90;;;;;;5097764;28;20737;-83
2024/01/30 04:59:15;;;;;;;7.80;5.50;;;12.30;99.90;;;;;;5097643;28;20206;-83
2024/01/30 05:01:41;;;;;;;8.70;5.40;;;12.30;99.90;;;;;;5098813;28;20217;-83
2024/01/30 05:04:10;;;;;;;7.93;5.40;;;12.30;99.90;;;;;;5100488;28;20598;-84
2024/01/30 05:06:36;;;;;;;9.03;5.77;;;12.30;99.90;;;;;;5101025;28;20171;-85
2024/01/30 05:09:04;;;;;;;8.20;5.60;;;12.30;99.90;;;;;;5107038;28;20171;-84
2024/01/30 05:11:30;;;;;;;7.63;5.40;;;12.20;99.90;;;;;;5100947;28;20167;-84
2024/01/30 05:13:56;;;;;;;7.93;5.00;;;12.30;99.90;;;;;;5097951;28;20167;-83
2024/01/30 05:16:21;;;;;;;9.73;5.40;;;12.20;99.90;;;;;;5097759;28;20167;-85
2024/01/30 05:18:47;;;;;;;7.13;5.30;;;12.20;99.90;;;;;;5096687;28;20171;-83
2024/01/30 05:21:13;;;;;;;8.03;5.50;;;12.20;99.90;;;;;;5096198;28;20298;-83
2024/01/30 05:23:40;;;;;;;9.53;5.27;;;12.20;99.90;;;;;;5096586;28;20291;-82
2024/01/30 05:26:05;;;;;;;7.40;5.37;;;12.20;99.90;;;;;;5096824;28;20200;-84
2024/01/30 05:28:32;;;;;;;8.27;6.10;;;12.20;99.90;;;;;;5115023;28;20630;-84
2024/01/30 05:30:57;;;;;;;6.73;4.97;;;12.20;99.90;;;;;;5096582;28;20182;-85
2024/01/30 05:33:23;;;;;;;8.77;5.60;;;12.10;99.90;;;;;;5097195;28;20174;-84
2024/01/30 05:35:48;;;;;;;6.93;5.47;;;12.20;99.90;;;;;;5099154;28;20665;-84
2024/01/30 05:38:16;;;;;;;8.37;5.67;;;12.20;99.90;;;;;;5101294;28;20212;-83
2024/01/30 05:40:42;;;;;;;6.27;5.57;;;12.10;99.90;;;;;;5102184;28;20245;-84
2024/01/30 05:43:07;;;;;;;11.40;5.27;;;12.20;99.90;;;;;;5102628;28;20675;-84
2024/01/30 05:45:35;;;;;;;8.27;5.97;;;12.10;99.90;;;;;;5099492;28;20173;-83
2024/01/30 05:48:01;;;;;;;9.50;6.00;;;12.10;99.90;;;;;;5095647;28;20177;-83
2024/01/30 05:50:26;;;;;;;6.43;5.40;;;12.10;99.90;;;;;;5099853;28;20241;-82
2024/01/30 05:52:52;;;;;;;8.53;5.60;;;12.10;99.90;;;;;;5098350;28;20167;-84
2024/01/30 05:55:18;;;;;;;7.80;5.43;;;12.10;99.90;;;;;;5096136;28;20402;-84
2024/01/30 05:57:44;;;;;;;8.63;5.43;;;12.10;99.90;;;;;;5095915;28;20190;-86
2024/01/30 06:00:10;;;;;;;8.60;5.63;;;12.10;99.90;;;;;;5095449;28;20573;-84
2024/01/30 06:02:36;;;;;;;8.17;5.63;;;12.20;99.90;;;;;;5096317;28;20633;-84
2024/01/30 06:05:01;;;;;;;10.20;6.50;;;12.30;99.90;;;;;;5094695;28;20181;-84
2024/01/30 06:07:27;;;;;;;8.43;5.20;;;12.30;99.90;;;;;;5095743;28;20170;-84
2024/01/30 06:09:53;;;;;;;8.87;6.00;;;12.20;99.90;;;;;;5096409;28;20215;-85
2024/01/30 06:12:19;;;;;;;9.93;6.23;;;12.30;99.90;;;;;;5095505;28;20170;-83
2024/01/30 06:14:44;;;;;;;9.83;6.10;;;12.30;99.90;;;;;;5096101;28;20169;-85
2024/01/30 06:17:11;;;;;;;8.10;5.73;;;12.30;99.90;;;;;;5095791;28;20196;-84
2024/01/30 06:19:41;;;;;;;9.17;6.00;;;12.30;99.90;;;;;;5095969;28;20248;-84
2024/01/30 06:22:07;;;;;;;9.27;6.10;;;12.20;99.90;;;;;;5095325;28;20273;-84
2024/01/30 06:24:34;;;;;;;9.30;6.27;;;12.30;99.90;;;;;;5093697;28;20298;-84
2024/01/30 06:27:00;;;;;;;7.97;6.20;;;12.20;99.90;;;;;;5094704;28;20174;-83
2024/01/30 06:29:26;;;;;;;10.43;5.90;;;12.50;99.90;;;;;;5095854;28;20174;-85
2024/01/30 06:31:52;;;;;;;8.93;6.17;;;12.60;99.90;;;;;;5094723;28;20277;-83
2024/01/30 06:34:18;;;;;;;8.27;5.90;;;12.50;99.90;;;;;;5095260;28;20240;-84
2024/01/30 06:36:43;;;;;;;8.30;5.87;;;12.40;99.90;;;;;;5095317;28;20266;-85
2024/01/30 06:39:09;;;;;;;8.43;6.47;;;12.30;99.90;;;;;;5095343;28;20713;-85
2024/01/30 06:41:34;;;;;;;8.70;5.80;;;12.30;99.90;;;;;;5095837;28;20703;-83
2024/01/30 06:44:03;;;;;;;9.00;6.10;;;12.30;99.90;;;;;;5096245;28;20277;-83
2024/01/30 06:46:29;;;;;;;9.23;6.30;;;12.30;99.90;;;;;;5096064;28;20208;-85
2024/01/30 06:48:55;;;;;;;9.13;5.53;;;12.30;99.90;;;;;;5095287;28;20202;-82
2024/01/30 06:51:21;;;;;;;10.77;6.43;;;12.30;99.90;;;;;;5097979;28;20173;-82
2024/01/30 06:53:46;;;;;;;9.97;5.67;;;12.20;99.90;;;;;;5104631;28;20171;-84
2024/01/30 06:56:13;;;;;;;8.50;6.03;;;12.20;99.90;;;;;;5095691;28;20171;-83
2024/01/30 06:58:38;;;;;;;10.53;6.13;;;12.20;99.90;;;;;;5095378;28;20195;-84
2024/01/30 07:01:04;;;;;;;16.20;6.03;;;12.30;99.90;;;;;;5096068;28;20225;-85
2024/01/30 07:03:30;;;;;;;8.97;6.23;;;12.10;99.90;;;;;;5094435;28;20272;-83
2024/01/30 07:05:55;;;;;;;10.30;6.70;;;12.20;99.90;;;;;;5094555;28;20193;-86
2024/01/30 07:08:22;;;;;;;8.23;6.20;;;12.10;99.90;;;;;;5094351;28;20598;-84
2024/01/30 07:10:48;;;;;;;10.33;6.30;;;12.20;99.90;;;;;;5095358;28;20191;-84
2024/01/30 07:13:16;;;;;;;10.70;5.90;;;12.10;99.90;;;;;;5113258;28;20228;-84
2024/01/30 07:15:42;;;;;;;12.30;5.73;;;12.20;99.90;;;;;;5095043;28;20175;-84
2024/01/30 07:18:09;;;;;;;9.47;5.70;;;12.20;99.90;;;;;;5093387;28;20163;-81
2024/01/30 07:20:35;;;;;;;8.07;5.97;;;12.30;99.90;;;;;;5112295;28;20193;-85
2024/01/30 07:23:02;;;;;;;10.20;6.13;;;12.20;99.90;;;;;;5113730;28;20182;-83
2024/01/30 07:25:29;;;;;;;9.97;6.40;;;12.10;99.90;;;;;;5089851;28;20214;-86
2024/01/30 07:27:54;;;;;;;9.97;5.83;;;12.20;99.90;;;;;;5092743;28;20204;-82
2024/01/30 07:30:21;;;;;;;9.87;6.03;;;12.20;99.90;;;;;;5094514;28;20170;-83
2024/01/30 07:32:47;;;;;;;8.93;6.50;;;12.20;99.90;;;;;;5095181;28;20167;-87
2024/01/30 07:35:14;;;;;;;9.77;6.33;;;12.20;99.90;;;;;;5094333;28;20183;-85
2024/01/30 07:37:40;;;;;;;10.10;6.87;;;12.40;99.90;;;;;;5094485;28;20594;-85
2024/01/30 07:40:06;;;;;;;13.27;6.57;;;12.30;99.90;;;;;;5094649;28;20245;-86
2024/01/30 07:42:33;;;;;;;10.23;6.10;;;12.20;99.90;;;;;;5094820;28;20179;-83
2024/01/30 07:44:59;;;;;;;9.03;6.53;;;12.30;99.90;;;;;;5094205;28;20399;-84
2024/01/30 07:47:24;;;;;;;11.47;6.87;;;12.10;99.90;;;;;;5094312;28;20698;-84
2024/01/30 07:49:51;;;;;;;9.83;6.63;;;12.30;99.90;;;;;;5096111;28;20176;-83
2024/01/30 07:52:17;;;;;;;12.10;6.43;;;12.20;99.90;;;;;;5097205;28;20234;-84
2024/01/30 07:54:49;;;;;;;8.33;5.87;;;12.10;99.90;;;;;;5098180;28;20173;-83
2024/01/30 07:57:15;;;;;;;18.27;6.90;;;12.10;99.90;;;;;;5098570;28;20549;-85
2024/01/30 07:59:44;;;;;;;14.23;6.70;;;12.10;99.90;;;;;;5098406;28;20241;-82
2024/01/30 08:02:13;;;;;;;7.50;6.47;;;12.10;99.90;;;;;;5118077;28;20174;-82
2024/01/30 08:04:39;;;;;;;10.20;6.80;;;12.10;99.90;;;;;;5100359;28;20641;-82
2024/01/30 08:07:05;;;;;;;11.27;6.93;;;12.10;99.90;;;;;;5099741;28;20198;-83
2024/01/30 08:09:31;;;;;;;11.60;6.70;;;12.00;99.90;;;;;;5100697;28;20193;-83
2024/01/30 08:11:57;;;;;;;10.47;7.33;;;12.10;99.90;;;;;;5099326;28;20171;-82
2024/01/30 08:14:22;;;;;;;15.03;7.33;;;12.10;99.90;;;;;;5098551;28;20166;-83
2024/01/30 08:16:48;;;;;;;10.30;6.73;;;12.10;99.90;;;;;;5115628;28;20527;-83
2024/01/30 08:19:15;;;;;;;12.10;7.13;;;12.00;99.90;;;;;;5097866;28;20213;-83
2024/01/30 08:21:42;;;;;;;11.60;7.80;;;11.90;99.90;;;;;;5098002;28;20216;-83
2024/01/30 08:24:08;;;;;;;12.20;7.93;;;11.90;99.90;;;;;;5098001;28;20205;-84
2024/01/30 08:26:34;;;;;;;15.20;7.73;;;11.90;99.90;;;;;;5097397;28;20168;-83
2024/01/30 08:29:00;;;;;;;11.30;7.20;;;12.00;99.90;;;;;;5097709;28;20175;-82
2024/01/30 08:31:26;;;;;;;13.07;7.13;;;12.10;99.90;;;;;;5098184;28;20190;-83
2024/01/30 08:33:51;;;;;;;14.83;8.33;;;12.00;99.90;;;;;;5098341;28;20536;-82
2024/01/30 08:36:17;;;;;;;10.63;6.73;;;12.00;99.90;;;;;;5098054;28;20177;-81
2024/01/30 08:38:43;;;;;;;11.93;7.67;;;12.00;99.90;;;;;;5098244;28;20168;-82
2024/01/30 08:41:09;;;;;;;11.57;7.10;;;11.90;99.90;;;;;;5102979;28;20243;-82
2024/01/30 08:43:36;;;;;;;14.17;7.47;;;12.00;99.90;;;;;;5103717;28;20200;-80
2024/01/30 08:46:02;;;;;;;14.47;8.37;;;12.00;99.90;;;;;;5098850;28;20170;-83
2024/01/30 08:48:28;;;;;;;15.27;7.20;;;12.10;99.90;;;;;;5116694;28;20171;-83
2024/01/30 08:50:54;;;;;;;14.60;8.67;;;12.20;99.90;;;;;;5097277;28;20226;-83
2024/01/30 08:53:19;;;;;;;14.93;7.63;;;12.30;99.90;;;;;;5097501;28;20544;-84
2024/01/30 08:55:45;;;;;;;12.63;7.37;;;12.40;99.90;;;;;;5097495;28;20178;-82
2024/01/30 08:58:11;;;;;;;13.63;8.77;;;12.30;99.90;;;;;;5115675;28;20192;-83
2024/01/30 09:00:37;;;;;;;13.40;7.30;;;12.40;99.90;;;;;;5096154;28;20220;-83
2024/01/30 09:03:03;;;;;;;11.17;7.17;;;12.30;99.90;;;;;;5098131;28;20662;-84
2024/01/30 09:05:29;;;;;;;12.93;7.27;;;12.30;99.90;;;;;;5097404;28;20184;-81
2024/01/30 09:07:55;;;;;;;10.90;7.53;;;12.30;99.90;;;;;;5097443;28;20175;-85
2024/01/30 09:10:21;;;;;;;14.57;6.63;;;12.30;99.90;;;;;;5097594;28;20270;-82
2024/01/30 09:12:47;;;;;;;10.30;6.97;;;12.40;99.90;;;;;;5097770;28;20243;-83
2024/01/30 09:15:14;;;;;;;10.00;6.33;;;12.30;99.90;;;;;;5097573;28;20183;-83
2024/01/30 09:17:40;;;;;;;11.70;7.07;;;12.40;99.90;;;;;;5099029;28;20205;-82
2024/01/30 09:20:06;;;;;;;11.60;7.27;;;12.40;99.90;;;;;;5118140;28;20202;-84
2024/01/30 09:22:32;;;;;;;11.70;7.60;;;12.40;99.90;;;;;;5099132;28;20217;-87
2024/01/30 09:24:58;;;;;;;13.63;7.50;;;12.40;99.90;;;;;;5098870;28;20181;-83
2024/01/30 09:27:24;;;;;;;12.13;8.10;;;12.40;99.90;;;;;;5097229;28;20176;-83
2024/01/30 09:29:49;;;;;;;13.57;7.53;;;12.40;99.90;;;;;;5099634;28;20178;-83
2024/01/30 09:32:15;;;;;;;13.93;7.60;;;12.50;99.90;;;;;;5101059;28;20671;-82
2024/01/30 09:34:41;;;;;;;17.20;8.40;;;12.40;99.90;;;;;;5116111;28;20657;-82
2024/01/30 09:37:07;;;;;;;14.97;7.77;;;12.40;99.90;;;;;;5117634;28;20178;-82
2024/01/30 09:39:33;;;;;;;16.57;8.70;;;12.60;99.90;;;;;;5120553;28;20194;-81
2024/01/30 09:42:18;;;;;;;12.77;7.87;;;12.60;99.90;;;;;;5107295;28;20303;-84
2024/01/30 09:44:44;;;;;;;13.07;8.07;;;12.50;99.90;;;;;;5101726;28;20170;-85
2024/01/30 09:47:10;;;;;;;15.70;8.27;;;12.30;99.90;;;;;;5098349;28;20529;-85
2024/01/30 09:49:38;;;;;;;14.30;8.70;;;12.40;99.90;;;;;;5097205;28;20174;-81
2024/01/30 09:52:05;;;;;;;11.83;8.43;;;12.40;99.90;;;;;;5098048;28;20178;-84
2024/01/30 09:54:31;;;;;;;17.00;8.50;;;12.30;99.90;;;;;;5097348;28;20706;-83
2024/01/30 09:56:58;;;;;;;16.53;8.67;;;12.30;99.90;;;;;;5080659;28;20170;-87
2024/01/30 09:59:24;;;;;;;12.83;8.53;;;12.40;99.90;;;;;;5096924;28;20231;-82
2024/01/30 10:01:51;;;;;;;17.60;9.77;;;12.40;99.90;;;;;;5096343;28;20694;-84
2024/01/30 10:04:17;;;;;;;13.77;8.87;;;12.30;99.90;;;;;;5096566;28;20187;-83
2024/01/30 10:06:43;;;;;;;14.23;9.27;;;12.20;99.90;;;;;;5096262;28;20208;-86
2024/01/30 10:09:13;;;;;;;16.40;9.17;;;12.30;99.90;;;;;;5096325;28;20270;-84
2024/01/30 10:11:38;;;;;;;13.17;9.00;;;12.30;99.90;;;;;;5096079;28;20544;-82
2024/01/30 10:14:04;;;;;;;15.87;9.87;;;12.20;99.90;;;;;;5096423;28;20606;-82
2024/01/30 10:16:30;;;;;;;15.70;9.03;;;12.30;99.90;;;;;;5096041;28;20185;-83
2024/01/30 10:18:56;;;;;;;16.30;10.33;;;12.20;99.90;;;;;;5095238;28;20177;-83
2024/01/30 10:21:22;;;;;;;11.73;8.57;;;12.20;99.90;;;;;;5095553;28;20699;-82
2024/01/30 10:23:48;;;;;;;15.47;9.73;;;12.20;99.90;;;;;;5096116;28;20165;-82
2024/01/30 10:26:17;;;;;;;15.57;9.77;;;12.20;99.90;;;;;;5096028;28;20171;-83
2024/01/30 10:28:43;;;;;;;15.20;9.77;;;12.20;99.90;;;;;;5120653;28;20218;-83
2024/01/30 10:31:09;;;;;;;16.47;11.20;;;12.10;99.90;;;;;;5101656;28;20267;-82
2024/01/30 10:33:35;;;;;;;13.43;9.17;;;12.10;99.90;;;;;;5095712;28;20626;-82
2024/01/30 10:36:04;;;;;;;19.60;11.53;;;12.00;99.90;;;;;;5095921;28;20175;-83
2024/01/30 10:38:31;;;;;;;16.73;10.97;;;11.90;99.90;;;;;;5095476;28;20623;-82
2024/01/30 10:40:59;;;;;;;17.27;11.63;;;11.90;99.90;;;;;;5095920;28;20280;-82
2024/01/30 10:43:35;;;;;;;20.60;12.27;;;11.80;99.90;;;;;;5095684;28;20218;-83
2024/01/30 10:46:20;;;;;;;19.20;12.37;;;11.80;99.90;;;;;;5095062;28;20174;-83
2024/01/30 10:49:06;;;;;;;17.27;12.07;;;11.80;99.90;;;;;;5095059;28;20179;-84
2024/01/30 10:51:34;;;;;;;18.20;10.87;;;11.80;99.90;;;;;;5095279;28;20254;-82
2024/01/30 10:54:00;;;;;;;14.30;9.33;;;11.80;99.90;;;;;;5094035;28;20176;-82
2024/01/30 10:56:27;;;;;;;13.80;9.07;;;11.80;99.90;;;;;;5094901;28;20257;-84
2024/01/30 10:58:54;;;;;;;12.83;8.03;;;11.90;99.90;;;;;;5095490;28;20202;-83
2024/01/30 11:01:24;;;;;;;11.47;7.33;;;11.90;99.90;;;;;;5113340;28;20226;-83
2024/01/30 11:03:54;;;;;;;10.80;7.13;;;11.80;99.90;;;;;;5095489;28;20487;-84
2024/01/30 11:06:26;;;;;;;12.93;7.27;;;11.80;99.90;;;;;;5096328;28;20175;-83
2024/01/30 11:09:09;;;;;;;14.67;7.27;;;11.80;99.90;;;;;;5094795;28;20657;-83
2024/01/30 11:11:52;;;;;;;11.00;6.27;;;11.70;99.90;;;;;;5094821;28;20239;-83
2024/01/30 11:14:29;;;;;;;10.60;3.20;;;11.80;99.90;;;;;;5094633;28;20170;-82
2024/01/30 11:16:59;;;;;;;5.87;2.80;;;11.70;99.90;;;;;;5095517;28;20220;-84
2024/01/30 11:19:30;;;;;;;7.57;3.13;;;11.60;99.90;;;;;;5112695;28;20159;-83
2024/01/30 11:21:59;;;;;;;7.13;2.60;;;11.60;99.90;;;;;;5094904;28;20207;-82
2024/01/30 11:24:26;;;;;;;5.50;2.07;;;11.50;99.90;;;;;;5094444;28;20198;-83
2024/01/30 11:26:58;;;;;;;6.77;2.90;;;11.40;99.90;;;;;;5095086;28;20608;-84
2024/01/30 11:29:28;;;;;;;6.17;2.77;;;11.40;99.90;;;;;;5094042;28;20176;-83
2024/01/30 11:31:58;;;;;;;5.57;2.07;;;11.40;99.90;;;;;;5094865;28;20631;-84
2024/01/30 11:34:24;;;;;;;3.70;1.70;;;11.40;99.90;;;;;;5094946;28;20170;-83
2024/01/30 11:37:00;;;;;;;3.83;1.90;;;11.40;99.90;;;;;;5095041;28;20182;-83
2024/01/30 11:39:26;;;;;;;4.80;1.40;;;11.50;99.90;;;;;;5095292;28;20174;-84
2024/01/30 11:41:54;;;;;;;5.07;1.20;;;11.50;99.90;;;;;;5094767;28;20219;-83
2024/01/30 11:44:20;;;;;;;3.83;1.30;;;11.60;99.90;;;;;;5094680;28;20245;-82
2024/01/30 11:46:51;;;;;;;3.77;1.20;;;11.50;99.90;;;;;;5094135;28;20593;-85
2024/01/30 11:49:19;;;;;;;3.90;1.47;;;11.50;99.90;;;;;;5095644;28;20577;-83
2024/01/30 11:51:46;;;;;;;4.43;1.27;;;11.60;99.90;;;;;;5095492;28;20175;-85
2024/01/30 11:54:11;;;;;;;3.77;1.30;;;11.70;99.90;;;;;;5094909;28;20167;-83
2024/01/30 11:56:38;;;;;;;4.23;1.40;;;11.80;99.90;;;;;;5095478;28;20263;-83
2024/01/30 11:59:04;;;;;;;4.17;1.30;;;11.80;99.90;;;;;;5094273;28;20210;-84
2024/01/30 12:01:31;;;;;;;3.70;1.23;;;11.90;99.90;;;;;;5095665;28;20707;-83
2024/01/30 12:03:59;;;;;;;4.23;1.00;;;11.90;99.90;;;;;;5101037;28;20168;-83
2024/01/30 12:06:26;;;;;;;3.63;1.20;;;11.70;99.90;;;;;;5096717;28;20693;-84
2024/01/30 12:08:59;;;;;;;2.90;1.20;;;11.60;99.90;;;;;;5094440;28;20180;-84
2024/01/30 12:11:29;;;;;;;6.03;1.70;;;11.70;99.90;;;;;;5094122;28;20167;-84
2024/01/30 12:13:56;;;;;;;4.90;0.93;;;11.70;99.90;;;;;;5101469;28;20173;-85
2024/01/30 12:16:22;;;;;;;4.10;1.17;;;11.70;99.90;;;;;;5098420;28;20225;-84
2024/01/30 12:18:48;;;;;;;6.20;1.33;;;11.80;99.90;;;;;;5095130;28;20195;-85
2024/01/30 12:21:17;;;;;;;3.30;1.20;;;11.80;99.90;;;;;;5111957;28;20223;-82
2024/01/30 12:23:43;;;;;;;7.97;1.20;;;11.90;99.90;;;;;;5118139;28;20179;-85
2024/01/30 12:26:10;;;;;;;3.10;1.33;;;11.90;99.90;;;;;;5116784;28;20205;-84
2024/01/30 12:28:47;;;;;;;1.93;0.93;;;12.00;99.90;;;;;;5102177;28;20270;-81
2024/01/30 12:31:33;;;;;;;3.93;1.37;;;11.90;99.90;;;;;;5099708;28;20194;-84
2024/01/30 12:34:01;;;;;;;3.87;1.30;;;11.90;99.90;;;;;;5095441;28;20169;-83
2024/01/30 12:36:30;;;;;;;3.73;1.27;;;12.00;99.90;;;;;;5095653;28;20656;-84
2024/01/30 12:38:57;;;;;;;2.13;0.97;;;12.00;99.90;;;;;;5098395;28;20218;-86
2024/01/30 12:41:27;;;;;;;5.30;1.40;;;11.90;99.90;;;;;;5097971;28;20212;-83